createdAt,value
2022-12-04T00:01:13.783Z,5.07
2022-12-04T00:03:40.831Z,8.35
2022-12-04T00:06:16.976Z,5.88
2022-12-04T00:08:45.195Z,5.72
2022-12-04T00:11:13.888Z,6.47
2022-12-04T00:13:41.573Z,7.03
2022-12-04T00:16:10.951Z,8.15
2022-12-04T00:18:38.000Z,7.07
2022-12-04T00:21:09.431Z,6.47
2022-12-04T00:23:37.565Z,11.40
2022-12-04T00:26:10.488Z,8.13
2022-12-04T00:28:37.870Z,6.80
2022-12-04T00:31:09.480Z,7.78
2022-12-04T00:33:36.680Z,8.35
2022-12-04T00:36:06.582Z,6.65
2022-12-04T00:38:33.380Z,6.63
2022-12-04T00:41:01.058Z,6.78
2022-12-04T00:43:28.668Z,3.88
2022-12-04T00:45:55.556Z,3.25
2022-12-04T00:48:22.816Z,2.63
2022-12-04T00:50:49.739Z,3.67
2022-12-04T00:53:16.467Z,1.98
2022-12-04T00:55:44.428Z,1.73
2022-12-04T00:58:11.510Z,1.75
2022-12-04T01:00:40.683Z,1.35
2022-12-04T01:03:08.743Z,1.80
2022-12-04T01:05:43.858Z,1.48
2022-12-04T01:08:11.945Z,2.20
2022-12-04T01:10:39.840Z,2.17
2022-12-04T01:13:06.543Z,1.52
2022-12-04T01:15:33.662Z,1.65
2022-12-04T01:18:00.363Z,1.70
2022-12-04T01:20:26.969Z,1.98
2022-12-04T01:22:53.588Z,1.98
2022-12-04T01:25:20.432Z,2.10
2022-12-04T01:27:47.329Z,3.95
2022-12-04T01:30:14.100Z,2.67
2022-12-04T01:32:40.804Z,3.22
2022-12-04T01:35:07.803Z,2.67
2022-12-04T01:37:34.518Z,3.03
2022-12-04T01:40:01.170Z,2.28
2022-12-04T01:42:27.818Z,2.72
2022-12-04T01:45:31.252Z,3.20
2022-12-04T01:48:07.004Z,2.50
2022-12-04T01:53:01.087Z,2.00
2022-12-04T01:55:27.982Z,2.60
2022-12-04T01:57:55.767Z,2.00
2022-12-04T02:00:22.410Z,2.10
2022-12-04T02:02:48.990Z,2.75
2022-12-04T02:05:21.788Z,3.97
2022-12-04T02:07:51.433Z,3.40
2022-12-04T02:10:24.396Z,2.72
2022-12-04T02:13:06.519Z,2.17
2022-12-04T02:15:44.020Z,3.05
2022-12-04T02:18:35.528Z,3.55
2022-12-04T02:21:21.151Z,1.23
2022-12-04T02:23:54.727Z,2.22
2022-12-04T02:26:41.075Z,1.20
2022-12-04T02:29:32.413Z,1.33
2022-12-04T02:32:09.476Z,2.15
2022-12-04T02:34:44.140Z,1.30
2022-12-04T02:37:29.916Z,1.27
2022-12-04T02:40:04.795Z,1.98
2022-12-04T02:42:39.235Z,1.63
2022-12-04T02:45:14.320Z,1.55
2022-12-04T02:47:44.235Z,1.55
2022-12-04T02:50:14.755Z,2.03
2022-12-04T02:53:02.639Z,1.85
2022-12-04T02:55:35.475Z,4.68
2022-12-04T02:58:09.427Z,2.30
2022-12-04T03:00:38.267Z,3.13
2022-12-04T03:03:13.944Z,2.45
2022-12-04T03:05:47.798Z,3.42
2022-12-04T03:08:19.771Z,3.20
2022-12-04T03:10:54.251Z,2.17
2022-12-04T03:13:36.817Z,4.72
2022-12-04T03:16:10.436Z,4.82
2022-12-04T03:18:41.815Z,2.47
2022-12-04T03:21:17.731Z,2.60
2022-12-04T03:23:49.308Z,2.03
2022-12-04T03:26:38.748Z,2.65
2022-12-04T03:29:16.108Z,2.30
2022-12-04T03:31:46.933Z,2.17
2022-12-04T03:34:26.748Z,2.53
2022-12-04T03:36:58.843Z,1.90
2022-12-04T03:39:34.971Z,2.00
2022-12-04T03:42:13.554Z,1.63
2022-12-04T03:44:46.519Z,1.52
2022-12-04T03:47:42.879Z,1.88
2022-12-04T03:50:15.058Z,3.03
2022-12-04T03:53:05.505Z,1.70
2022-12-04T03:55:45.207Z,2.10
2022-12-04T03:58:18.666Z,3.03
2022-12-04T04:00:49.386Z,2.17
2022-12-04T04:03:50.814Z,2.22
2022-12-04T04:06:22.013Z,2.15
2022-12-04T04:08:52.374Z,2.35
2022-12-04T04:11:34.999Z,2.80
2022-12-04T04:14:28.391Z,2.08
2022-12-04T04:17:25.315Z,1.15
2022-12-04T04:20:22.160Z,1.23
2022-12-04T04:23:10.547Z,0.63
2022-12-04T04:25:40.430Z,0.50
2022-12-04T04:28:47.341Z,0.52
2022-12-04T04:31:26.392Z,0.50
2022-12-04T04:34:16.329Z,0.43
2022-12-04T04:36:59.741Z,0.95
2022-12-04T04:40:00.029Z,0.40
2022-12-04T04:42:58.612Z,0.50
2022-12-04T04:45:36.427Z,0.60
2022-12-04T04:48:12.903Z,0.63
2022-12-04T04:50:41.562Z,0.50
2022-12-04T04:53:33.954Z,0.30
2022-12-04T04:56:01.924Z,0.60
2022-12-04T04:58:28.550Z,0.68
2022-12-04T05:01:01.291Z,0.40
2022-12-04T05:03:29.311Z,0.50
2022-12-04T05:05:55.957Z,0.50
2022-12-04T05:08:23.236Z,2.17
2022-12-04T05:10:49.876Z,0.52
2022-12-04T05:13:17.707Z,0.57
2022-12-04T05:15:44.573Z,0.68
2022-12-04T05:18:11.599Z,0.68
2022-12-04T05:20:39.246Z,0.40
2022-12-04T05:23:07.279Z,0.60
2022-12-04T05:25:33.964Z,0.38
2022-12-04T05:28:00.675Z,0.85
2022-12-04T05:30:27.296Z,0.50
2022-12-04T05:32:54.117Z,0.45
2022-12-04T05:35:20.730Z,1.20
2022-12-04T05:37:48.197Z,0.82
2022-12-04T05:40:14.876Z,0.43
2022-12-04T05:42:41.596Z,0.60
2022-12-04T05:45:08.635Z,0.40
2022-12-04T05:47:43.171Z,0.80
2022-12-04T05:50:12.211Z,0.30
2022-12-04T05:52:39.201Z,1.88
2022-12-04T05:55:06.363Z,1.13
2022-12-04T05:57:32.998Z,0.50
2022-12-04T05:59:59.712Z,0.68
2022-12-04T06:02:26.471Z,1.65
2022-12-04T06:04:53.235Z,0.45
2022-12-04T06:07:19.986Z,0.55
2022-12-04T06:09:46.621Z,2.15
2022-12-04T06:12:13.197Z,1.48
2022-12-04T06:14:40.182Z,0.70
2022-12-04T06:17:06.940Z,0.55
2022-12-04T06:19:33.692Z,0.30
2022-12-04T06:22:00.247Z,0.60
2022-12-04T06:24:26.854Z,0.60
2022-12-04T06:27:26.243Z,1.08
2022-12-04T06:29:45.036Z,0.40
2022-12-04T06:32:14.019Z,0.40
2022-12-04T06:34:44.615Z,1.65
2022-12-04T06:37:11.366Z,0.50
2022-12-04T06:39:38.027Z,1.17
2022-12-04T06:42:04.687Z,0.88
2022-12-04T06:44:31.390Z,0.43
2022-12-04T06:47:00.967Z,0.40
2022-12-04T06:49:28.366Z,0.75
2022-12-04T06:51:55.046Z,0.43
2022-12-04T06:54:21.688Z,0.57
2022-12-04T06:56:49.793Z,1.23
2022-12-04T06:59:16.511Z,16.92
2022-12-04T07:01:43.341Z,27.13
2022-12-04T07:04:10.012Z,3.38
2022-12-04T07:06:38.966Z,5.85
2022-12-04T07:09:17.390Z,3.63
2022-12-04T07:11:45.010Z,2.55
2022-12-04T07:14:13.031Z,6.30
2022-12-04T07:16:42.026Z,32.65
2022-12-04T07:19:14.217Z,11.32
2022-12-04T07:21:41.836Z,3.72
2022-12-04T07:24:13.727Z,23.27
2022-12-04T07:26:40.522Z,27.67
2022-12-04T07:29:07.124Z,3.60
2022-12-04T07:31:33.769Z,1.20
2022-12-04T07:34:00.419Z,0.88
2022-12-04T07:36:27.503Z,0.50
2022-12-04T07:38:57.366Z,0.88
2022-12-04T07:41:24.523Z,0.68
2022-12-04T07:43:51.140Z,1.25
2022-12-04T07:46:24.508Z,1.67
2022-12-04T07:48:51.274Z,0.57
2022-12-04T07:51:20.803Z,1.13
2022-12-04T07:53:48.162Z,4.90
2022-12-04T07:56:15.550Z,5.13
2022-12-04T07:58:43.063Z,9.10
2022-12-04T08:01:15.606Z,2.08
2022-12-04T08:03:48.132Z,4.95
2022-12-04T08:06:17.486Z,2.67
2022-12-04T08:08:44.175Z,10.65
2022-12-04T08:11:13.679Z,3.67
2022-12-04T08:13:40.411Z,2.00
2022-12-04T08:16:09.227Z,1.90
2022-12-04T08:18:36.130Z,1.42
2022-12-04T08:21:11.572Z,0.90
2022-12-04T08:23:40.962Z,3.30
2022-12-04T08:26:08.815Z,2.00
2022-12-04T08:28:36.854Z,2.75
2022-12-04T08:31:12.786Z,3.10
2022-12-04T08:33:40.445Z,3.05
2022-12-04T08:36:09.787Z,3.42
2022-12-04T08:38:37.169Z,1.65
2022-12-04T08:41:06.289Z,1.63
2022-12-04T08:43:33.029Z,1.50
2022-12-04T08:46:02.669Z,3.60
2022-12-04T08:48:29.685Z,2.88
2022-12-04T08:50:56.249Z,6.72
2022-12-04T08:53:23.889Z,2.97
2022-12-04T08:55:51.029Z,2.53
2022-12-04T08:58:18.176Z,8.57
2022-12-04T09:00:45.062Z,4.82
2022-12-04T09:03:17.411Z,10.57
2022-12-04T09:05:48.036Z,19.58
2022-12-04T09:08:16.728Z,12.63
2022-12-04T09:10:44.171Z,11.93
2022-12-04T09:13:10.843Z,5.07
2022-12-04T09:15:41.404Z,3.80
2022-12-04T09:18:09.807Z,7.80
2022-12-04T09:20:36.915Z,5.32
2022-12-04T09:23:05.741Z,4.70
2022-12-04T09:25:36.710Z,6.90
2022-12-04T09:28:03.955Z,5.65
2022-12-04T09:30:30.492Z,4.70
2022-12-04T09:32:57.236Z,4.75
2022-12-04T09:35:24.102Z,5.18
2022-12-04T09:37:50.775Z,6.82
2022-12-04T09:40:43.125Z,4.57
2022-12-04T09:43:30.660Z,4.22
2022-12-04T09:46:08.212Z,2.17
2022-12-04T09:48:39.924Z,3.63
2022-12-04T09:51:16.303Z,3.95
2022-12-04T09:53:52.963Z,2.70
2022-12-04T09:56:21.237Z,1.92
2022-12-04T09:58:54.952Z,2.13
2022-12-04T10:01:32.885Z,1.58
2022-12-04T10:04:05.636Z,3.13
2022-12-04T10:06:39.179Z,2.15
2022-12-04T10:09:30.206Z,2.13
2022-12-04T10:12:29.116Z,2.00
2022-12-04T10:15:43.531Z,2.35
2022-12-04T10:18:24.803Z,2.92
2022-12-04T10:21:16.124Z,3.10
2022-12-04T10:23:51.906Z,3.40
2022-12-04T10:28:55.463Z,2.67
2022-12-04T10:34:05.598Z,4.93
2022-12-04T10:36:34.934Z,4.43
2022-12-04T10:39:01.644Z,4.65
2022-12-04T10:41:36.293Z,3.67
2022-12-04T10:44:03.039Z,5.20
2022-12-04T10:46:34.619Z,4.07
2022-12-04T10:49:06.857Z,5.45
2022-12-04T10:51:41.195Z,5.13
2022-12-04T10:54:32.857Z,4.57
2022-12-04T10:57:06.240Z,3.75
2022-12-04T10:59:33.272Z,3.67
2022-12-04T11:02:11.049Z,4.55
2022-12-04T11:04:38.194Z,4.32
2022-12-04T11:07:10.780Z,15.35
2022-12-04T11:09:38.127Z,4.93
2022-12-04T11:12:17.343Z,5.07
2022-12-04T11:14:47.143Z,3.53
2022-12-04T11:17:19.556Z,5.47
2022-12-04T11:19:46.285Z,5.53
2022-12-04T11:22:18.842Z,3.58
2022-12-04T11:24:56.642Z,4.45
2022-12-04T11:27:29.455Z,7.63
2022-12-04T11:29:56.787Z,4.03
2022-12-04T11:32:30.919Z,4.53
2022-12-04T11:35:17.435Z,5.32
2022-12-04T11:38:12.160Z,5.63
2022-12-04T11:40:39.422Z,4.55
2022-12-04T11:43:14.009Z,5.07
2022-12-04T11:45:41.246Z,4.72
2022-12-04T11:48:19.470Z,4.00
2022-12-04T11:50:58.505Z,3.75
2022-12-04T11:54:00.702Z,5.40
2022-12-04T11:56:48.783Z,3.88
2022-12-04T11:59:26.794Z,3.70
2022-12-04T12:02:16.458Z,3.75
2022-12-04T12:05:07.628Z,3.65
2022-12-04T12:08:03.195Z,3.17
2022-12-04T12:10:44.627Z,4.93
2022-12-04T12:13:26.394Z,4.15
2022-12-04T12:16:15.616Z,4.93
2022-12-04T12:18:54.413Z,6.13
2022-12-04T12:21:43.831Z,6.25
2022-12-04T12:24:53.394Z,6.93
2022-12-04T12:27:57.814Z,5.22
2022-12-04T12:30:28.920Z,6.20
2022-12-04T12:32:58.623Z,5.60
2022-12-04T12:35:35.314Z,4.20
2022-12-04T12:38:14.852Z,6.30
2022-12-04T12:40:53.367Z,5.93
2022-12-04T12:43:32.447Z,5.20
2022-12-04T12:46:11.426Z,12.95
2022-12-04T12:49:02.268Z,7.25
2022-12-04T12:51:37.970Z,7.50
2022-12-04T12:56:49.544Z,6.00
2022-12-04T12:59:26.449Z,6.00
2022-12-04T13:02:01.026Z,2.88
2022-12-04T13:04:38.793Z,2.42
2022-12-04T13:07:18.255Z,3.42
2022-12-04T13:10:01.903Z,2.08
2022-12-04T13:12:29.133Z,1.63
2022-12-04T13:14:55.762Z,1.98
2022-12-04T13:17:39.501Z,2.05
2022-12-04T13:20:14.163Z,3.22
2022-12-04T13:23:14.783Z,5.53
2022-12-04T13:26:07.573Z,5.95
2022-12-04T13:28:46.247Z,3.40
2022-12-04T13:31:25.625Z,7.13
2022-12-04T13:34:31.370Z,5.47
2022-12-04T13:37:24.577Z,100.45
2022-12-04T13:40:26.619Z,25.63
2022-12-04T13:42:53.870Z,13.73
2022-12-04T13:45:32.204Z,3.90
2022-12-04T13:48:01.644Z,2.80
2022-12-04T13:50:35.375Z,3.97
2022-12-04T13:53:02.372Z,4.70
2022-12-04T13:55:35.690Z,2.45
2022-12-04T13:58:04.206Z,1.42
2022-12-04T14:00:34.698Z,0.88
2022-12-04T14:03:06.272Z,1.23
2022-12-04T14:05:41.521Z,3.03
2022-12-04T14:08:20.380Z,1.48
2022-12-04T14:11:05.361Z,2.08
2022-12-04T14:13:45.647Z,1.40
2022-12-04T14:16:30.183Z,1.35
2022-12-04T14:19:00.009Z,3.22
2022-12-04T14:21:39.095Z,1.95
2022-12-04T14:24:29.892Z,1.40
2022-12-04T14:27:11.327Z,3.20
2022-12-04T14:29:49.551Z,1.35
2022-12-04T14:32:21.604Z,4.05
2022-12-04T14:34:49.581Z,5.07
2022-12-04T14:37:25.595Z,1.13
2022-12-04T14:39:53.455Z,1.35
2022-12-04T14:42:23.323Z,6.30
2022-12-04T14:44:57.220Z,3.53
2022-12-04T14:47:52.980Z,20.15
2022-12-04T14:50:41.062Z,3.40
2022-12-04T14:53:13.293Z,5.97
2022-12-04T14:55:52.344Z,3.05
2022-12-04T14:58:32.507Z,5.05
2022-12-04T15:01:19.974Z,6.13
2022-12-04T15:03:53.514Z,4.82
2022-12-04T15:06:25.575Z,3.53
2022-12-04T15:09:15.417Z,4.28
2022-12-04T15:12:19.164Z,4.07
2022-12-04T15:14:48.415Z,2.47
2022-12-04T15:17:17.115Z,4.10
2022-12-04T15:19:44.305Z,5.18
2022-12-04T15:22:20.976Z,2.33
2022-12-04T15:24:47.884Z,4.97
2022-12-04T15:27:18.039Z,2.28
2022-12-04T15:29:48.435Z,5.90
2022-12-04T15:32:20.477Z,6.13
2022-12-04T15:35:05.795Z,6.15
2022-12-04T15:37:33.055Z,6.55
2022-12-04T15:40:00.223Z,7.90
2022-12-04T15:42:29.801Z,5.75
2022-12-04T15:45:03.703Z,7.50
2022-12-04T15:47:33.143Z,7.20
2022-12-04T15:50:18.086Z,5.80
2022-12-04T15:53:03.007Z,5.38
2022-12-04T15:55:32.416Z,5.47
2022-12-04T15:58:02.765Z,4.57
2022-12-04T16:00:42.360Z,5.30
2022-12-04T16:03:31.374Z,5.97
2022-12-04T16:06:13.206Z,10.45
2022-12-04T16:08:42.507Z,9.23
2022-12-04T16:11:18.367Z,7.68
2022-12-04T16:13:45.108Z,6.40
2022-12-04T16:16:15.096Z,6.45
2022-12-04T16:18:43.312Z,8.05
2022-12-04T16:21:16.307Z,6.88
2022-12-04T16:23:43.228Z,9.45
2022-12-04T16:26:13.298Z,13.57
2022-12-04T16:28:40.011Z,10.25
2022-12-04T16:31:06.954Z,10.07
2022-12-04T16:33:33.648Z,9.77
2022-12-04T16:36:00.311Z,12.75
2022-12-04T16:38:27.031Z,10.70
2022-12-04T16:40:53.647Z,9.00
2022-12-04T16:43:20.354Z,14.80
2022-12-04T16:45:51.738Z,11.13
2022-12-04T16:48:19.056Z,10.30
2022-12-04T16:50:46.319Z,11.43
2022-12-04T16:53:18.234Z,10.02
2022-12-04T16:55:47.393Z,8.93
2022-12-04T16:58:14.779Z,14.80
2022-12-04T17:00:43.742Z,14.70
2022-12-04T17:03:42.658Z,17.50
2022-12-04T17:06:09.520Z,16.58
2022-12-04T17:08:36.188Z,13.07
2022-12-04T17:11:03.343Z,9.43
2022-12-04T17:13:30.306Z,10.60
2022-12-04T17:15:58.579Z,9.43
2022-12-04T17:18:25.283Z,8.20
2022-12-04T17:20:51.927Z,9.75
2022-12-04T17:23:18.594Z,7.20
2022-12-04T17:25:45.339Z,7.22
2022-12-04T17:28:11.935Z,8.88
2022-12-04T17:30:38.609Z,6.70
2022-12-04T17:33:05.501Z,9.18
2022-12-04T17:35:32.187Z,7.20
2022-12-04T17:38:05.416Z,7.60
2022-12-04T17:40:33.506Z,10.02
2022-12-04T17:43:00.228Z,11.40
2022-12-04T17:45:26.961Z,9.95
2022-12-04T17:47:53.530Z,13.23
2022-12-04T17:50:20.263Z,13.88
2022-12-04T17:52:47.070Z,15.60
2022-12-04T17:55:13.989Z,14.48
2022-12-04T17:57:40.677Z,16.08
2022-12-04T18:00:08.195Z,17.30
2022-12-04T18:02:41.674Z,16.52
2022-12-04T18:05:09.271Z,14.07
2022-12-04T18:07:35.926Z,15.25
2022-12-04T18:10:02.796Z,25.63
2022-12-04T18:12:29.518Z,21.45
2022-12-04T18:14:56.781Z,15.18
2022-12-04T18:17:23.587Z,18.08
2022-12-04T18:19:50.367Z,14.60
2022-12-04T18:22:17.174Z,11.38
2022-12-04T18:24:43.997Z,14.02
2022-12-04T18:27:10.944Z,11.80
2022-12-04T18:29:38.860Z,11.65
2022-12-04T18:32:06.119Z,12.82
2022-12-04T18:34:32.982Z,13.95
2022-12-04T18:36:59.891Z,13.52
2022-12-04T18:39:26.811Z,14.48
2022-12-04T18:41:57.118Z,13.05
2022-12-04T18:44:24.464Z,12.02
2022-12-04T18:46:51.273Z,14.20
2022-12-04T18:49:17.978Z,25.02
2022-12-04T18:51:49.598Z,33.45
2022-12-04T18:54:23.111Z,24.00
2022-12-04T18:56:51.070Z,19.33
2022-12-04T18:59:22.161Z,16.55
2022-12-04T19:01:51.817Z,17.80
2022-12-04T19:04:20.336Z,15.52
2022-12-04T19:06:51.657Z,14.60
2022-12-04T19:09:35.383Z,16.80
2022-12-04T19:12:09.021Z,25.23
2022-12-04T19:14:35.750Z,24.63
2022-12-04T19:17:02.701Z,24.90
2022-12-04T19:19:31.739Z,24.98
2022-12-04T19:21:59.045Z,33.00
2022-12-04T19:24:25.657Z,34.70
2022-12-04T19:26:54.026Z,26.70
2022-12-04T19:29:20.661Z,28.15
2022-12-04T19:31:47.491Z,23.70
2022-12-04T19:34:14.323Z,25.83
2022-12-04T19:36:41.735Z,23.80
2022-12-04T19:39:08.603Z,24.70
2022-12-04T19:41:37.178Z,27.23
2022-12-04T19:44:25.947Z,22.20
2022-12-04T19:46:51.109Z,23.08
2022-12-04T19:49:17.643Z,20.15
2022-12-04T19:51:44.575Z,19.88
2022-12-04T19:54:13.432Z,17.98
2022-12-04T19:56:40.318Z,15.77
2022-12-04T19:59:08.517Z,18.15
2022-12-04T20:01:35.886Z,20.45
2022-12-04T20:04:05.757Z,18.15
2022-12-04T20:06:42.792Z,16.00
2022-12-04T20:09:13.113Z,16.38
2022-12-04T20:11:40.612Z,17.75
2022-12-04T20:14:08.372Z,20.23
2022-12-04T20:16:36.584Z,19.10
2022-12-04T20:19:05.182Z,16.30
2022-12-04T20:21:32.615Z,16.25
2022-12-04T20:24:03.953Z,19.50
2022-12-04T20:26:33.868Z,19.35
2022-12-04T20:29:01.460Z,17.27
2022-12-04T20:31:34.855Z,19.20
2022-12-04T20:34:04.775Z,19.48
2022-12-04T20:36:37.275Z,22.08
2022-12-04T20:39:04.912Z,20.80
2022-12-04T20:41:32.054Z,17.52
2022-12-04T20:44:00.767Z,23.55
2022-12-04T20:46:33.389Z,24.42
2022-12-04T20:49:01.922Z,27.23
2022-12-04T20:51:31.313Z,21.15
2022-12-04T20:53:59.398Z,18.30
2022-12-04T20:56:33.052Z,51.85
2022-12-04T20:59:03.284Z,63.53
2022-12-04T21:01:30.315Z,43.80
2022-12-04T21:03:59.242Z,24.60
2022-12-04T21:06:35.039Z,24.80
2022-12-04T21:09:06.078Z,24.90
2022-12-04T21:11:34.651Z,25.90
2022-12-04T21:14:21.858Z,24.23
2022-12-04T21:16:49.032Z,18.77
2022-12-04T21:19:19.598Z,22.35
2022-12-04T21:21:47.030Z,25.70
2022-12-04T21:24:15.868Z,28.42
2022-12-04T21:26:42.797Z,25.25
2022-12-04T21:29:09.877Z,21.92
2022-12-04T21:31:37.830Z,18.15
2022-12-04T21:34:07.306Z,14.48
2022-12-04T21:36:34.706Z,14.38
2022-12-04T21:39:01.535Z,13.50
2022-12-04T21:41:46.671Z,18.15
2022-12-04T21:44:16.904Z,14.83
2022-12-04T21:46:44.946Z,11.23
2022-12-04T21:49:12.662Z,13.02
2022-12-04T21:51:56.818Z,14.25
2022-12-04T21:54:25.288Z,15.30
2022-12-04T21:56:52.034Z,11.98
2022-12-04T21:59:18.813Z,10.02
2022-12-04T22:01:45.824Z,11.63
2022-12-04T22:04:12.770Z,12.40
2022-12-04T22:06:39.842Z,14.30
2022-12-04T22:09:08.525Z,13.93
2022-12-04T22:11:35.111Z,14.23
2022-12-04T22:14:01.853Z,12.98
2022-12-04T22:16:30.998Z,12.15
2022-12-04T22:18:59.195Z,10.93
2022-12-04T22:21:28.103Z,14.65
2022-12-04T22:24:00.122Z,13.73
2022-12-04T22:26:28.135Z,11.77
2022-12-04T22:28:55.216Z,12.90
2022-12-04T22:31:25.438Z,11.95
2022-12-04T22:33:54.191Z,11.18
2022-12-04T22:36:23.520Z,10.25
2022-12-04T22:39:09.939Z,10.48
2022-12-04T22:41:37.897Z,12.40
2022-12-04T22:44:05.344Z,9.82
2022-12-04T22:46:32.348Z,10.85
2022-12-04T22:48:59.952Z,11.55
2022-12-04T22:51:27.693Z,9.57
2022-12-04T22:53:56.981Z,11.55
2022-12-04T22:56:29.080Z,9.18
2022-12-04T22:58:57.884Z,12.15
2022-12-04T23:01:30.584Z,10.68
2022-12-04T23:03:58.006Z,11.18
2022-12-04T23:06:26.799Z,10.40
2022-12-04T23:09:02.002Z,10.10
2022-12-04T23:11:29.268Z,11.05
2022-12-04T23:14:01.252Z,9.65
2022-12-04T23:16:30.162Z,9.23
2022-12-04T23:18:57.733Z,11.05
2022-12-04T23:21:25.474Z,9.52
2022-12-04T23:23:53.857Z,10.25
2022-12-04T23:26:23.384Z,9.68
2022-12-04T23:28:50.011Z,10.65
2022-12-04T23:31:17.168Z,10.57
2022-12-04T23:33:43.783Z,12.70
2022-12-04T23:36:12.239Z,11.52
2022-12-04T23:38:40.741Z,16.80
2022-12-04T23:41:16.155Z,13.85
2022-12-04T23:43:44.223Z,15.88
2022-12-04T23:46:12.846Z,13.02
2022-12-04T23:48:41.188Z,10.63
2022-12-04T23:51:10.159Z,11.50
2022-12-04T23:53:37.171Z,15.75
2022-12-04T23:56:14.219Z,11.55
2022-12-04T23:58:41.409Z,9.68
